Amunt
Inicio > meteoXarxa
Fes-te'n soci

METEOXARXA

Peníscola
Ubicació Gran Hotel
Comarca el Baix Maestrat
Altitud (msnm) 19
Posició geogràfica 40° 23' 30.48" N, 00° 24' 46.08" E
Model Davis Vantage Pro2 Plus
Presa de dades
Font de les dades Gran Hotel (Fco. Javier Pau Tomás/Jordi Maura Posas)
Estadístiques. Resum
Data Temperatura (ºC) Humitat (%) Pressió (hPa) Vent (km/h) Precipit. (mm)
Mínima Mitjana Màxima Mínima Mitjana Màxima Mínima Mitjana Màxima Predom. Mitjana Ràfega màxima Total Dies de pluja
Mínima Mitjana Màxima Mínima Mitjana Màxima
Últimes dades diàries
20-02-2017 6,9     12,9     19,0 38,0 63,5 89,0 1.023,0 1.024,5 1.026,0 24,0 0,0  
19-02-2017 8,3     12,9     17,6 63,0 77,5 92,0 1.021,0 1.023,5 1.026,0 18,0 0,0  
18-02-2017 6,0     10,4     14,8 68,0 80,0 92,0 1.018,0 1.021,0 1.024,0 26,0 0,0  
17-02-2017 6,6     11,1     15,5 77,0 85,5 94,0 1.024,0 1.027,0 1.030,0 26,0 0,0  
16-02-2017 9,7     13,4     17,1 77,0 84,5 92,0 1.029,0 1.030,5 1.032,0 15,0 0,0  
15-02-2017 8,6     12,9     17,3 75,0 83,5 92,0 1.028,0 1.030,0 1.032,0 13,0 0,0  
14-02-2017 7,1     11,2     15,4 70,0 82,5 95,0 1.014,0 1.020,5 1.027,0 19,0 0,0  
13-02-2017 11,7     14,2     16,8 80,0 87,0 94,0 1.006,0 1.010,0 1.014,0 39,0 4,4  
12-02-2017 12,7     14,2     15,6 82,0 87,5 93,0 1.007,0 1.008,0 1.009,0 27,0 0,0  
11-02-2017 8,1     10,8     13,6 79,0 85,5 92,0 1.009,0 1.012,0 1.015,0 31,0 0,0  
10-02-2017 5,1     9,4     13,7 62,0 73,0 84,0 1.013,0 1.014,5 1.016,0 26,0 0,0  
09-02-2017 6,2     11,2     16,3 26,0 50,5 75,0 1.015,0 1.017,0 1.019,0 45,0 0,0  
08-02-2017 9,9     12,3     14,8 35,0 48,5 62,0 1.014,0 1.016,5 1.019,0 53,0 0,0  
07-02-2017 13,2     18,1     22,9 38,0 54,5 71,0 1.015,0 1.016,5 1.018,0 39,0 0,2  
06-02-2017 11,0     15,1     19,2 38,0 45,5 53,0 1.015,0 1.017,0 1.019,0 68,0 0,0  
05-02-2017 12,4     14,7     17,0 27,0 52,5 78,0 1.005,0 1.011,5 1.018,0 66,0 0,0  
04-02-2017 12,6     15,7     18,8 56,0 69,5 83,0 1.008,0 1.010,5 1.013,0 44,0 0,0  
03-02-2017 8,1     13,9     19,8 45,0 68,0 91,0 1.010,0 1.013,0 1.016,0 47,0 0,0  
02-02-2017 6,6     10,3     14,1 79,0 87,5 96,0 1.010,0 1.012,5 1.015,0 29,0 2,0  
01-02-2017 9,0     11,4     13,8 83,0 89,0 95,0 1.015,0 1.016,0 1.017,0 19,0 0,0  
31-01-2017 6,6     9,7     12,8 91,0 93,0 95,0 1.016,0 1.017,0 1.018,0 11,0 0,0  
30-01-2017 7,8     11,8     15,8 64,0 77,5 91,0 1.018,0 1.020,0 1.022,0 11,0 0,0  
29-01-2017 5,9     10,2     14,4 48,0 62,5 77,0 1.021,0 1.022,5 1.024,0 31,0 0,0  
28-01-2017 8,2     12,7     17,1 40,0 66,0 92,0 1.007,0 1.014,5 1.022,0 29,0 4,0  
27-01-2017 7,4     11,1     14,7 81,0 87,0 93,0 1.007,0 1.011,0 1.015,0 42,0 12,6  
26-01-2017 5,2     9,1     12,9 66,0 77,0 88,0 1.015,0 1.016,5 1.018,0 18,0 0,0  
25-01-2017 3,3     8,2     13,1 29,0 53,0 77,0 1.016,0 1.017,5 1.019,0 19,0 0,0  
24-01-2017 7,2     11,8     16,3 32,0 49,0 66,0 1.015,0 1.017,0 1.019,0 26,0 0,0  
23-01-2017 7,1     10,1     13,1 56,0 71,5 87,0 1.014,0 1.015,5 1.017,0 24,0 1,2  
22-01-2017 8,7     10,3     11,9 50,0 66,5 83,0 1.012,0 1.013,5 1.015,0 37,0 0,8  
21-01-2017 7,8     9,6     11,4 1,0 47,0 93,0 1.013,0 1.015,5 1.018,0 37,0 5,6  
20-01-2017 8,8     10,1     11,3 83,0 88,0 93,0 1.015,0 1.016,5 1.018,0 58,0 14,0  
Dades del mes en curs (actualitzades fins l'últim dia disponible)
02/2017 5,1 9,0 13,2 12,8 13,6 16,7 22,9 26,0 72,8 96,0 1.005,0 1.017,6 1.032,0   68,0 6,6  
Últimes dades mensuals
01/2017 1,2 6,1 11,1 10,1 10,3 14,0 18,0 37,5 65,3 93,0 1.011,0 1.018,8 1.028,0 68,0 43,2 7
12/2016 1,9 7,8 15,3 12,1 10,3 16,4 19,6 60,5 77,7 92,0 1.014,0 1.025,8 1.034,5 52,0 50,2 7
11/2016 6,8 10,8 16,2 14,9 13,6 18,9 25,8 42,0 65,0 88,0 1.001,0 1.013,7 1.029,0 52,0 40,6 10
10/2016 12,3 16,3 20,3 20,2 15,9 24,1 28,9 59,5 75,9 89,0 999,5 1.015,1 1.028,5 37,0 58,6 10
09/2016 14,1 19,4 23,6 23,4 25,4 28,0 32,2 42,0 60,1 78,0 1.009,5 1.016,4 1.026,0 55,0 15,4 5
08/2016 18,1 21,5 24,9 25,1 25,4 28,6 30,8 43,0 64,8 79,0 1.009,0 1.016,8 1.022,5 42,0 1,8 2
07/2016 18,2 21,3 24,1 25,0 25,3 28,6 32,4 43,5 64,6 79,5 1.012,0 1.015,7 1.020,0 52,0 0,6 1
06/2016 14,6 18,3 22,3 22,0 22,1 25,7 31,3 43,0 67,4 82,0 1.001,0 1.014,4 1.022,0 44,0 1,4 5
05/2016 10,6 14,7 19,6 18,2 14,1 21,7 28,1 42,5 67,8 85,5 1.003,5 1.012,6 1.021,0 40,0 27,8 7
04/2016 7,9 11,5 14,4 15,4 14,9 19,2 23,1 38,0 67,0 86,5 1.005,0 1.012,2 1.018,5 55,0 24,8 8
03/2016 5,9 9,4 12,7 13,5 13,0 17,5 24,3 35,5 61,2 88,5 1.001,5 1.013,1 1.020,5 55,0 45,2 5
02/2016 2,9 8,3 15,7 12,8 12,2 17,4 25,3 36,0 60,2 83,0 991,5 1.015,7 1.034,0 63,0 7,0 5
01/2016 4,2 8,9 13,7 12,8 13,3 16,7 23,2 41,0 64,0 85,5 1.002,0 1.018,0 1.031,5 58,0 0,8 3
Dades de l'any en curs (actualitzades fins l'últim dia disponible)
2017 1,2 7,2 13,2 11,1 10,3 15,0 22,9 1,0 68,2 96,0 1.005,0 1.018,3 1.032,0   68,0 49,8  
Últimes dades anuals